createdAt,value
2023-01-11T00:00:33.908Z,100468.11
2023-01-11T00:03:17.278Z,100463.04
2023-01-11T00:05:45.467Z,100462.64
2023-01-11T00:08:13.323Z,100463.86
2023-01-11T00:10:41.070Z,100461.88
2023-01-11T00:13:08.721Z,100458.34
2023-01-11T00:15:38.127Z,100457.70
2023-01-11T00:18:05.965Z,100459.96
2023-01-11T00:20:33.661Z,100457.13
2023-01-11T00:23:01.358Z,100461.73
2023-01-11T00:25:29.112Z,100464.26
2023-01-11T00:27:56.797Z,100463.64
2023-01-11T00:30:24.496Z,100463.23
2023-01-11T00:32:59.400Z,100466.23
2023-01-11T00:35:27.884Z,100467.08
2023-01-11T00:37:55.549Z,100466.91
2023-01-11T00:40:24.233Z,100467.05
2023-01-11T00:43:08.143Z,100465.31
2023-01-11T00:45:51.791Z,100467.95
2023-01-11T00:48:19.576Z,100471.88
2023-01-11T00:50:47.292Z,100469.14
2023-01-11T00:53:14.971Z,100469.54
2023-01-11T00:55:42.648Z,100475.56
2023-01-11T00:58:10.254Z,100478.17
2023-01-11T01:00:38.166Z,100477.80
2023-01-11T01:03:05.825Z,100479.27
2023-01-11T01:05:33.548Z,100478.82
2023-01-11T01:08:01.301Z,100478.23
2023-01-11T01:10:28.992Z,100473.27
2023-01-11T01:13:12.565Z,100475.23
2023-01-11T01:15:40.221Z,100469.62
2023-01-11T01:18:08.046Z,100465.92
2023-01-11T01:20:35.691Z,100474.27
2023-01-11T01:23:03.322Z,100469.17
2023-01-11T01:25:30.955Z,100471.35
2023-01-11T01:27:58.747Z,100472.06
2023-01-11T01:30:26.484Z,100470.16
2023-01-11T01:32:54.152Z,100465.17
2023-01-11T01:35:21.825Z,100462.86
2023-01-11T01:37:49.619Z,100460.27
2023-01-11T01:40:17.405Z,100457.86
2023-01-11T01:42:45.096Z,100454.68
2023-01-11T01:45:29.917Z,100454.88
2023-01-11T01:48:00.327Z,100448.95
2023-01-11T01:50:31.937Z,100442.45
2023-01-11T01:53:03.903Z,100444.97
2023-01-11T01:55:35.215Z,100443.15
2023-01-11T01:58:06.274Z,100442.06
2023-01-11T02:00:34.209Z,100439.98
2023-01-11T02:03:02.246Z,100436.30
2023-01-11T02:05:30.279Z,100434.95
2023-01-11T02:07:59.658Z,100441.64
2023-01-11T02:10:28.758Z,100442.38
2023-01-11T02:13:01.642Z,100444.50
2023-01-11T02:15:29.695Z,100448.82
2023-01-11T02:17:57.354Z,100444.85
2023-01-11T02:20:24.941Z,100451.54
2023-01-11T02:23:08.545Z,100442.47
2023-01-11T02:25:52.192Z,100443.67
2023-01-11T02:28:25.675Z,100441.86
2023-01-11T02:31:09.442Z,100438.86
2023-01-11T02:33:37.222Z,100436.45
2023-01-11T02:36:04.826Z,100436.67
2023-01-11T02:38:37.686Z,100434.44
2023-01-11T02:41:21.277Z,100432.30
2023-01-11T02:44:04.858Z,100431.43
2023-01-11T02:46:35.611Z,100428.25
2023-01-11T02:49:29.901Z,100425.52
2023-01-11T02:52:08.820Z,100418.22
2023-01-11T02:54:37.922Z,100420.14
2023-01-11T02:57:05.946Z,100423.02
2023-01-11T02:59:35.216Z,100421.92
2023-01-11T03:02:02.954Z,100427.91
2023-01-11T03:04:32.373Z,100422.42
2023-01-11T03:07:15.941Z,100422.68
2023-01-11T03:09:46.433Z,100421.54
2023-01-11T03:12:28.963Z,100419.02
2023-01-11T03:15:12.774Z,100420.15
2023-01-11T03:17:56.901Z,100417.54
2023-01-11T03:20:37.253Z,100419.32
2023-01-11T03:23:10.954Z,100416.09
2023-01-11T03:25:54.591Z,100413.28
2023-01-11T03:28:25.396Z,100412.59
2023-01-11T03:30:59.175Z,100412.48
2023-01-11T03:33:38.292Z,100403.67
2023-01-11T03:36:13.942Z,100399.60
2023-01-11T03:38:57.816Z,100396.69
2023-01-11T03:41:29.144Z,100396.75
2023-01-11T03:43:58.940Z,100397.06
2023-01-11T03:46:32.714Z,100396.05
2023-01-11T03:49:06.241Z,100396.81
2023-01-11T03:51:36.030Z,100397.71
2023-01-11T03:54:06.402Z,100396.55
2023-01-11T03:56:41.093Z,100398.59
2023-01-11T03:59:08.902Z,100400.20
2023-01-11T04:01:37.475Z,100399.27
2023-01-11T04:04:05.325Z,100400.27
2023-01-11T04:06:35.795Z,100393.44
2023-01-11T04:09:04.325Z,100393.87
2023-01-11T04:11:32.050Z,100388.48
2023-01-11T04:14:00.802Z,100390.71
2023-01-11T04:16:28.680Z,100389.41
2023-01-11T04:18:56.465Z,100386.77
2023-01-11T04:21:24.141Z,100381.96
2023-01-11T04:23:52.082Z,100381.16
2023-01-11T04:26:19.706Z,100379.52
2023-01-11T04:28:47.408Z,100380.97
2023-01-11T04:31:15.127Z,100380.80
2023-01-11T04:33:42.915Z,100381.88
2023-01-11T04:36:11.333Z,100380.77
2023-01-11T04:38:38.976Z,100370.52
2023-01-11T04:41:23.832Z,100367.46
2023-01-11T04:43:56.088Z,100364.66
2023-01-11T04:46:24.114Z,100364.06
2023-01-11T04:48:52.398Z,100361.96
2023-01-11T04:51:20.124Z,100352.27
2023-01-11T04:53:49.183Z,100350.21
2023-01-11T04:56:17.693Z,100349.25
2023-01-11T04:58:45.896Z,100346.02
2023-01-11T05:01:18.083Z,100342.34
2023-01-11T05:03:46.424Z,100337.95
2023-01-11T05:06:14.704Z,100337.99
2023-01-11T05:08:46.511Z,100332.30
2023-01-11T05:11:15.018Z,100336.21
2023-01-11T05:13:43.736Z,100336.71
2023-01-11T05:16:11.456Z,100332.84
2023-01-11T05:18:40.675Z,100330.39
2023-01-11T05:21:08.958Z,100341.86
2023-01-11T05:23:36.823Z,100337.66
2023-01-11T05:26:06.324Z,100336.89
2023-01-11T05:28:33.998Z,100344.33
2023-01-11T05:31:01.849Z,100338.03
2023-01-11T05:33:29.483Z,100337.39
2023-01-11T05:35:58.930Z,100336.16
2023-01-11T05:38:26.696Z,100335.73
2023-01-11T05:40:58.536Z,100333.67
2023-01-11T05:43:26.865Z,100330.00
2023-01-11T05:45:54.901Z,100329.84
2023-01-11T05:48:23.177Z,100327.38
2023-01-11T05:50:51.752Z,100323.27
2023-01-11T05:53:20.158Z,100315.47
2023-01-11T05:55:54.506Z,100315.23
2023-01-11T05:58:23.263Z,100316.44
2023-01-11T06:00:51.643Z,100314.96
2023-01-11T06:03:19.760Z,100315.31
2023-01-11T06:05:47.916Z,100314.77
2023-01-11T06:08:15.785Z,100309.86
2023-01-11T06:10:46.081Z,100312.23
2023-01-11T06:13:30.769Z,100314.61
2023-01-11T06:16:02.446Z,100317.34
2023-01-11T06:18:31.825Z,100319.81
2023-01-11T06:21:01.002Z,100317.09
2023-01-11T06:23:29.478Z,100318.63
2023-01-11T06:26:00.508Z,100308.68
2023-01-11T06:28:28.122Z,100309.53
2023-01-11T06:30:56.895Z,100310.11
2023-01-11T06:33:25.757Z,100305.66
2023-01-11T06:35:54.168Z,100298.48
2023-01-11T06:38:24.119Z,100301.72
2023-01-11T06:40:56.773Z,100296.23
2023-01-11T06:43:25.301Z,100295.20
2023-01-11T06:45:52.912Z,100295.77
2023-01-11T06:48:21.741Z,100293.14
2023-01-11T06:50:50.256Z,100287.38
2023-01-11T06:53:17.948Z,100289.52
2023-01-11T06:55:48.967Z,100285.48
2023-01-11T06:58:16.668Z,100285.93
2023-01-11T07:00:44.836Z,100284.32
2023-01-11T07:03:13.290Z,100277.21
2023-01-11T07:05:42.266Z,100278.58
2023-01-11T07:08:10.292Z,100279.59
2023-01-11T07:10:41.586Z,100279.09
2023-01-11T07:13:10.084Z,100278.30
2023-01-11T07:15:38.055Z,100287.95
2023-01-11T07:18:06.020Z,100287.42
2023-01-11T07:20:33.757Z,100286.61
2023-01-11T07:23:02.717Z,100282.86
2023-01-11T07:25:31.512Z,100275.00
2023-01-11T07:28:01.712Z,100277.72
2023-01-11T07:30:31.352Z,100285.08
2023-01-11T07:32:59.699Z,100289.23
2023-01-11T07:35:29.154Z,100287.63
2023-01-11T07:37:56.905Z,100282.29
2023-01-11T07:40:25.081Z,100277.79
2023-01-11T07:43:10.969Z,100274.58
2023-01-11T07:45:47.321Z,100267.52
2023-01-11T07:48:16.454Z,100271.08
2023-01-11T07:50:45.247Z,100269.69
2023-01-11T07:53:13.581Z,100268.96
2023-01-11T07:55:41.230Z,100265.41
2023-01-11T07:58:10.746Z,100267.80
2023-01-11T08:00:40.502Z,100265.52
2023-01-11T08:03:08.839Z,100263.07
2023-01-11T08:05:38.872Z,100259.55
2023-01-11T08:08:08.058Z,100257.24
2023-01-11T08:10:40.379Z,100252.84
2023-01-11T08:13:28.367Z,100252.60
2023-01-11T08:15:57.170Z,100251.48
2023-01-11T08:18:25.411Z,100252.45
2023-01-11T08:20:53.291Z,100253.13
2023-01-11T08:23:20.969Z,100247.98
2023-01-11T08:25:48.662Z,100247.17
2023-01-11T08:28:16.371Z,100249.30
2023-01-11T08:30:44.688Z,100248.33
2023-01-11T08:33:12.363Z,100253.55
2023-01-11T08:35:40.278Z,100252.63
2023-01-11T08:38:08.074Z,100256.02
2023-01-11T08:40:35.897Z,100256.89
2023-01-11T08:43:03.950Z,100255.06
2023-01-11T08:45:31.701Z,100258.88
2023-01-11T08:47:59.820Z,100262.38
2023-01-11T08:50:27.615Z,100263.00
2023-01-11T08:52:55.315Z,100267.84
2023-01-11T08:55:22.823Z,100270.33
2023-01-11T08:57:50.495Z,100269.79
2023-01-11T09:00:18.697Z,100271.93
2023-01-11T09:02:46.640Z,100268.85
2023-01-11T09:05:16.254Z,100269.29
2023-01-11T09:07:45.856Z,100270.30
2023-01-11T09:10:13.516Z,100269.58
2023-01-11T09:12:41.238Z,100269.36
2023-01-11T09:15:09.613Z,100273.27
2023-01-11T09:17:37.210Z,100267.62
2023-01-11T09:20:05.251Z,100271.64
2023-01-11T09:22:33.793Z,100268.60
2023-01-11T09:25:01.455Z,100261.80
2023-01-11T09:27:31.699Z,100254.23
2023-01-11T09:30:01.338Z,100258.69
2023-01-11T09:32:29.170Z,100253.42
2023-01-11T09:34:58.005Z,100254.32
2023-01-11T09:37:26.955Z,100249.05
2023-01-11T09:39:54.587Z,100242.38
2023-01-11T09:42:39.352Z,100240.61
2023-01-11T09:45:10.995Z,100239.20
2023-01-11T09:47:42.083Z,100234.67
2023-01-11T09:50:16.208Z,100237.16
2023-01-11T09:52:47.347Z,100237.16
2023-01-11T09:55:19.963Z,100236.45
2023-01-11T09:58:03.570Z,100229.88
2023-01-11T10:00:31.637Z,100228.77
2023-01-11T10:03:03.195Z,100225.41
2023-01-11T10:05:51.234Z,100219.14
2023-01-11T10:18:23.666Z,100209.41
2023-01-11T10:18:43.435Z,100204.77
2023-01-11T10:20:27.613Z,100204.35
2023-01-11T10:23:00.265Z,100195.63
2023-01-11T10:25:34.328Z,100191.72
2023-01-11T10:28:09.124Z,100182.96
2023-01-11T10:31:01.047Z,100179.36
2023-01-11T10:34:03.348Z,100180.56
2023-01-11T10:36:58.640Z,100178.63
2023-01-11T10:39:37.639Z,100176.45
2023-01-11T10:42:10.722Z,100173.48
2023-01-11T10:45:02.634Z,100168.48
2023-01-11T10:47:41.201Z,100163.73
2023-01-11T10:50:25.269Z,100157.73
2023-01-11T10:52:59.897Z,100153.64
2023-01-11T10:55:39.861Z,100148.07
2023-01-11T10:58:11.462Z,100141.14
2023-01-11T11:00:41.137Z,100139.86
2023-01-11T11:03:13.088Z,100137.69
2023-01-11T11:05:47.488Z,100131.27
2023-01-11T11:08:26.632Z,100125.17
2023-01-11T11:11:01.932Z,100121.21
2023-01-11T11:13:56.257Z,100118.98
2023-01-11T11:16:25.790Z,100118.93
2023-01-11T11:18:58.482Z,100116.10
2023-01-11T11:21:32.578Z,100112.64
2023-01-11T11:24:33.154Z,100104.21
2023-01-11T11:27:22.707Z,100097.75
2023-01-11T11:29:53.614Z,100093.20
2023-01-11T11:32:28.853Z,100091.02
2023-01-11T11:34:57.238Z,100090.11
2023-01-11T11:37:31.635Z,100087.81
2023-01-11T11:39:59.785Z,100083.64
2023-01-11T11:42:28.101Z,100081.45
2023-01-11T11:45:11.680Z,100079.77
2023-01-11T11:47:39.407Z,100074.77
2023-01-11T11:50:43.190Z,100073.18
2023-01-11T11:53:20.269Z,100066.11
2023-01-11T11:55:48.002Z,100060.23
2023-01-11T11:58:18.442Z,100054.00
2023-01-11T12:00:47.671Z,100050.19
2023-01-11T12:03:18.625Z,100048.94
2023-01-11T12:05:54.404Z,100048.58
2023-01-11T12:08:24.495Z,100046.70
2023-01-11T12:10:58.317Z,100043.07
2023-01-11T12:13:28.944Z,100036.41
2023-01-11T12:15:57.721Z,100026.10
2023-01-11T12:18:29.719Z,100020.77
2023-01-11T12:21:14.041Z,100023.60
2023-01-11T12:23:42.051Z,100013.79
2023-01-11T12:26:13.670Z,100016.16
2023-01-11T12:29:14.698Z,100010.80
2023-01-11T12:31:50.585Z,99997.50
2023-01-11T12:34:34.308Z,99991.77
2023-01-11T12:37:18.874Z,99988.30
2023-01-11T12:39:46.591Z,99981.51
2023-01-11T12:42:14.294Z,99983.04
2023-01-11T12:44:54.613Z,99976.69
2023-01-11T12:47:22.215Z,99966.79
2023-01-11T12:49:56.098Z,99961.20
2023-01-11T12:52:29.117Z,99957.68
2023-01-11T12:55:09.849Z,99953.96
2023-01-11T12:58:09.394Z,99955.77
2023-01-11T13:00:37.015Z,99952.86
2023-01-11T13:03:20.680Z,99954.33
2023-01-11T13:06:04.301Z,99955.84
2023-01-11T13:08:48.938Z,99949.64
2023-01-11T13:11:35.668Z,99947.72
2023-01-11T13:14:21.107Z,99943.63
2023-01-11T13:16:55.938Z,99942.42
2023-01-11T13:19:29.364Z,99938.70
2023-01-11T13:21:58.306Z,99938.95
2023-01-11T13:24:29.436Z,99934.96
2023-01-11T13:27:06.219Z,99931.38
2023-01-11T13:29:37.143Z,99927.10
2023-01-11T13:32:07.194Z,99926.89
2023-01-11T13:34:36.993Z,99922.52
2023-01-11T13:37:20.689Z,99918.33
2023-01-11T13:39:51.862Z,99918.14
2023-01-11T13:42:24.645Z,99914.94
2023-01-11T13:44:58.259Z,99911.95
2023-01-11T13:47:35.055Z,99916.13
2023-01-11T13:50:08.585Z,99913.33
2023-01-11T13:52:36.231Z,99911.64
2023-01-11T13:55:25.327Z,99909.90
2023-01-11T13:58:20.401Z,99909.80
2023-01-11T14:00:52.046Z,99910.87
2023-01-11T14:03:25.548Z,99914.67
2023-01-11T14:05:56.066Z,99914.45
2023-01-11T14:08:39.716Z,99916.36
2023-01-11T14:11:18.331Z,99915.30
2023-01-11T14:14:08.228Z,99916.73
2023-01-11T14:16:51.834Z,99908.40
2023-01-11T14:19:24.943Z,99906.23
2023-01-11T14:21:55.299Z,99904.10
2023-01-11T14:24:24.008Z,99898.22
2023-01-11T14:27:08.041Z,99903.31
2023-01-11T14:29:48.364Z,99901.20
2023-01-11T14:32:22.269Z,99904.28
2023-01-11T14:35:04.297Z,99905.33
2023-01-11T14:37:38.204Z,99900.23
2023-01-11T14:40:21.852Z,99898.61
2023-01-11T14:42:49.693Z,99891.39
2023-01-11T14:45:20.159Z,99884.95
2023-01-11T14:47:47.793Z,99880.63
2023-01-11T14:50:29.487Z,99876.95
2023-01-11T14:52:58.987Z,99873.71
2023-01-11T14:55:31.684Z,99869.48
2023-01-11T14:58:01.700Z,99866.73
2023-01-11T15:00:29.349Z,99865.89
2023-01-11T15:03:00.057Z,99860.86
2023-01-11T15:05:33.545Z,99855.32
2023-01-11T15:08:17.305Z,99845.63
2023-01-11T15:10:49.372Z,99846.81
2023-01-11T15:13:19.830Z,99846.80
2023-01-11T15:16:03.191Z,99842.73
2023-01-11T15:18:31.411Z,99846.19
2023-01-11T15:21:06.206Z,99847.03
2023-01-11T15:23:38.135Z,99849.63
2023-01-11T15:26:09.271Z,99847.71
2023-01-11T15:28:39.838Z,99851.70
2023-01-11T15:31:27.562Z,99848.92
2023-01-11T15:33:55.627Z,99844.70
2023-01-11T15:36:23.958Z,99842.28
2023-01-11T15:38:57.261Z,99842.19
2023-01-11T15:41:56.869Z,99837.59
2023-01-11T15:44:40.490Z,99838.36
2023-01-11T15:47:24.171Z,99834.90
2023-01-11T15:49:54.910Z,99838.11
2023-01-11T15:52:28.871Z,99831.59
2023-01-11T15:55:13.938Z,99829.81
2023-01-11T15:57:47.613Z,99823.20
2023-01-11T16:00:31.322Z,99817.41
2023-01-11T16:03:15.153Z,99816.20
2023-01-11T16:05:50.069Z,99824.25
2023-01-11T16:08:26.119Z,99829.35
2023-01-11T16:11:09.797Z,99831.63
2023-01-11T16:13:37.431Z,99832.30
2023-01-11T16:16:21.141Z,99834.90
2023-01-11T16:19:06.353Z,99837.39
2023-01-11T16:21:35.791Z,99832.38
2023-01-11T16:24:13.242Z,99835.27
2023-01-11T16:26:41.856Z,99833.19
2023-01-11T16:29:17.876Z,99833.73
2023-01-11T16:32:01.764Z,99833.73
2023-01-11T16:34:30.514Z,99828.25
2023-01-11T16:36:59.114Z,99831.32
2023-01-11T16:39:29.232Z,99827.90
2023-01-11T16:42:14.428Z,99832.59
2023-01-11T16:44:51.469Z,99828.55
2023-01-11T16:47:20.184Z,99822.11
2023-01-11T16:50:07.822Z,99820.73
2023-01-11T16:52:51.516Z,99816.52
2023-01-11T16:55:20.953Z,99812.27
2023-01-11T16:57:51.931Z,99814.24
2023-01-11T17:00:24.855Z,99807.14
2023-01-11T17:03:10.691Z,99802.33
2023-01-11T17:05:38.475Z,99800.33
2023-01-11T17:08:22.112Z,99798.86
2023-01-11T17:10:52.109Z,99800.17
2023-01-11T17:13:51.742Z,99799.46
2023-01-11T17:16:21.575Z,99792.85
2023-01-11T17:18:49.531Z,99790.80
2023-01-11T17:21:19.145Z,99792.92
2023-01-11T17:23:48.607Z,99800.11
2023-01-11T17:26:18.201Z,99788.77
2023-01-11T17:28:47.537Z,99788.95
2023-01-11T17:31:20.398Z,99787.91
2023-01-11T17:33:48.821Z,99781.41
2023-01-11T17:36:16.649Z,99779.21
2023-01-11T17:38:44.532Z,99777.30
2023-01-11T17:41:32.817Z,99774.55
2023-01-11T17:44:16.828Z,99773.50
2023-01-11T17:46:46.004Z,99774.02
2023-01-11T17:49:20.942Z,99774.36
2023-01-11T17:51:48.711Z,99775.90
2023-01-11T17:54:20.560Z,99773.83
2023-01-11T17:56:54.588Z,99776.07
2023-01-11T17:59:29.938Z,99769.77
2023-01-11T18:02:00.238Z,99767.12
2023-01-11T18:04:28.743Z,99770.84
2023-01-11T18:07:05.288Z,99768.71
2023-01-11T18:09:35.923Z,99765.67
2023-01-11T18:12:20.594Z,99763.39
2023-01-11T18:14:56.779Z,99764.05
2023-01-11T18:17:41.738Z,99759.84
2023-01-11T18:20:15.549Z,99763.93
2023-01-11T18:23:05.200Z,99755.67
2023-01-11T18:25:36.485Z,99757.97
2023-01-11T18:28:21.150Z,99757.38
2023-01-11T18:30:54.000Z,99754.05
2023-01-11T18:33:30.001Z,99747.04
2023-01-11T18:35:59.697Z,99746.09
2023-01-11T18:38:30.195Z,99748.94
2023-01-11T18:40:58.813Z,99754.34
2023-01-11T18:43:28.121Z,99752.30
2023-01-11T18:45:56.019Z,99756.05
2023-01-11T18:48:23.900Z,99759.85
2023-01-11T18:50:51.980Z,99759.52
2023-01-11T18:53:19.940Z,99756.55
2023-01-11T18:55:47.645Z,99754.17
2023-01-11T18:58:15.459Z,99752.10
2023-01-11T19:00:43.163Z,99750.95
2023-01-11T19:03:11.482Z,99754.46
2023-01-11T19:05:40.047Z,99750.00
2023-01-11T19:08:07.774Z,99742.79
2023-01-11T19:10:35.581Z,99745.65
2023-01-11T19:13:03.231Z,99748.17
2023-01-11T19:15:33.994Z,99744.72
2023-01-11T19:18:02.504Z,99745.32
2023-01-11T19:22:57.844Z,99748.56
2023-01-11T19:25:25.525Z,99744.67
2023-01-11T19:27:54.965Z,99743.45
2023-01-11T19:30:22.905Z,99748.09
2023-01-11T19:32:51.909Z,99743.73
2023-01-11T19:35:20.085Z,99741.26
2023-01-11T19:37:47.949Z,99734.48
2023-01-11T19:40:16.541Z,99732.30
2023-01-11T19:42:46.753Z,99736.45
2023-01-11T19:45:14.384Z,99736.39
2023-01-11T19:47:42.202Z,99736.86
2023-01-11T19:50:10.457Z,99735.27
2023-01-11T19:52:38.130Z,99727.84
2023-01-11T19:55:06.177Z,99728.98
2023-01-11T19:57:33.992Z,99728.52
2023-01-11T20:00:03.807Z,99722.21
2023-01-11T20:02:39.426Z,99722.74
2023-01-11T20:05:07.204Z,99723.81
2023-01-11T20:07:34.885Z,99722.17
2023-01-11T20:10:02.592Z,99715.75
2023-01-11T20:12:30.310Z,99714.58
2023-01-11T20:15:01.401Z,99715.65
2023-01-11T20:17:29.267Z,99710.44
2023-01-11T20:19:56.964Z,99714.84
2023-01-11T20:22:24.738Z,99714.14
2023-01-11T20:24:52.429Z,99716.15
2023-01-11T20:27:20.138Z,99710.30
2023-01-11T20:29:47.881Z,99713.65
2023-01-11T20:32:39.075Z,99710.63
2023-01-11T20:35:04.709Z,99707.15
2023-01-11T20:37:32.409Z,99708.92
2023-01-11T20:40:00.132Z,99713.34
2023-01-11T20:42:27.862Z,99708.29
2023-01-11T20:44:55.503Z,99705.27
2023-01-11T20:47:23.154Z,99703.19
2023-01-11T20:49:50.828Z,99704.59
2023-01-11T20:52:18.421Z,99704.66
2023-01-11T20:54:46.200Z,99706.13
2023-01-11T20:57:13.948Z,99706.09
2023-01-11T20:59:41.542Z,99707.23
2023-01-11T21:02:10.425Z,99704.70
2023-01-11T21:04:38.043Z,99704.61
2023-01-11T21:07:05.710Z,99705.80
2023-01-11T21:09:33.418Z,99700.73
2023-01-11T21:12:01.073Z,99705.95
2023-01-11T21:14:28.804Z,99707.19
2023-01-11T21:16:56.505Z,99709.30
2023-01-11T21:19:24.249Z,99714.77
2023-01-11T21:21:51.888Z,99711.79
2023-01-11T21:24:20.687Z,99715.75
2023-01-11T21:26:48.436Z,99710.40
2023-01-11T21:29:16.212Z,99709.62
2023-01-11T21:31:43.936Z,99710.40
2023-01-11T21:34:12.427Z,99710.77
2023-01-11T21:36:40.268Z,99709.69
2023-01-11T21:39:09.372Z,99712.88
2023-01-11T21:41:54.687Z,99715.48
2023-01-11T21:44:24.463Z,99718.95
2023-01-11T21:46:54.057Z,99717.48
2023-01-11T21:49:24.067Z,99713.89
2023-01-11T21:51:51.765Z,99715.63
2023-01-11T21:54:19.522Z,99716.77
2023-01-11T21:56:47.657Z,99719.05
2023-01-11T21:59:15.827Z,99718.56
2023-01-11T22:01:44.444Z,99712.77
2023-01-11T22:04:13.540Z,99717.02
2023-01-11T22:06:42.473Z,99718.40
2023-01-11T22:09:11.378Z,99722.16
2023-01-11T22:11:39.633Z,99721.80
2023-01-11T22:14:08.807Z,99721.34
2023-01-11T22:16:37.111Z,99716.02
2023-01-11T22:19:08.753Z,99717.56
2023-01-11T22:21:36.798Z,99714.42
2023-01-11T22:24:05.758Z,99718.54
2023-01-11T22:26:36.400Z,99717.68
2023-01-11T22:29:19.967Z,99718.66
2023-01-11T22:31:50.799Z,99718.65
2023-01-11T22:34:19.216Z,99721.06
2023-01-11T22:36:47.016Z,99722.86
2023-01-11T22:39:15.662Z,99721.94
2023-01-11T22:41:45.568Z,99715.25
2023-01-11T22:44:13.824Z,99716.92
2023-01-11T22:46:42.265Z,99718.49
2023-01-11T22:49:10.487Z,99722.78
2023-01-11T22:51:38.198Z,99717.34
2023-01-11T22:54:05.860Z,99727.01
2023-01-11T22:56:33.832Z,99721.59
2023-01-11T22:59:01.936Z,99726.73
2023-01-11T23:01:31.698Z,99726.20
2023-01-11T23:04:00.119Z,99725.88
2023-01-11T23:06:29.817Z,99723.48
2023-01-11T23:08:57.774Z,99721.31
2023-01-11T23:11:43.165Z,99719.34
2023-01-11T23:14:12.485Z,99722.59
2023-01-11T23:16:40.616Z,99723.53
2023-01-11T23:19:08.955Z,99723.91
2023-01-11T23:21:39.340Z,99723.50
2023-01-11T23:24:07.335Z,99721.58
2023-01-11T23:26:35.134Z,99724.86
2023-01-11T23:29:03.747Z,99717.14
2023-01-11T23:31:31.645Z,99719.61
2023-01-11T23:34:00.409Z,99718.34
2023-01-11T23:36:29.939Z,99718.60
2023-01-11T23:38:57.919Z,99711.59
2023-01-11T23:41:40.939Z,99714.13
2023-01-11T23:44:10.052Z,99713.59
2023-01-11T23:46:54.276Z,99716.86
2023-01-11T23:49:22.099Z,99715.20
2023-01-11T23:51:50.092Z,99717.24
2023-01-11T23:54:17.686Z,99713.83
2023-01-11T23:56:45.353Z,99720.35
2023-01-11T23:59:12.979Z,99719.23
